sensor_id;sensor_type;location;lat;lon;timestamp;P1;durP1;ratioP1;P2;durP2;ratioP2
20020;SDS011;10171;42.694;23.318;2023-05-29T00:01:18;7.95;;;5.80;;
20020;SDS011;10171;42.694;23.318;2023-05-29T00:03:44;8.95;;;6.07;;
20020;SDS011;10171;42.694;23.318;2023-05-29T00:06:09;9.75;;;6.07;;
20020;SDS011;10171;42.694;23.318;2023-05-29T00:08:35;10.02;;;5.50;;
20020;SDS011;10171;42.694;23.318;2023-05-29T00:11:00;7.25;;;5.28;;
20020;SDS011;10171;42.694;23.318;2023-05-29T00:13:26;9.30;;;5.47;;
20020;SDS011;10171;42.694;23.318;2023-05-29T00:15:51;10.15;;;5.55;;
20020;SDS011;10171;42.694;23.318;2023-05-29T00:18:18;10.13;;;5.68;;
20020;SDS011;10171;42.694;23.318;2023-05-29T00:20:44;9.77;;;5.35;;
20020;SDS011;10171;42.694;23.318;2023-05-29T00:23:09;8.38;;;5.40;;
20020;SDS011;10171;42.694;23.318;2023-05-29T00:25:35;6.00;;;5.28;;
20020;SDS011;10171;42.694;23.318;2023-05-29T00:28:00;8.48;;;4.60;;
20020;SDS011;10171;42.694;23.318;2023-05-29T00:30:25;8.75;;;5.57;;
20020;SDS011;10171;42.694;23.318;2023-05-29T00:32:51;9.23;;;5.35;;
20020;SDS011;10171;42.694;23.318;2023-05-29T00:35:17;7.38;;;5.85;;
20020;SDS011;10171;42.694;23.318;2023-05-29T00:37:43;7.43;;;5.22;;
20020;SDS011;10171;42.694;23.318;2023-05-29T00:40:08;10.98;;;5.03;;
20020;SDS011;10171;42.694;23.318;2023-05-29T00:42:35;7.47;;;5.22;;
20020;SDS011;10171;42.694;23.318;2023-05-29T00:45:00;8.55;;;5.63;;
20020;SDS011;10171;42.694;23.318;2023-05-29T00:47:26;6.82;;;5.18;;
20020;SDS011;10171;42.694;23.318;2023-05-29T00:49:51;8.23;;;5.15;;
20020;SDS011;10171;42.694;23.318;2023-05-29T00:52:17;7.30;;;5.43;;
20020;SDS011;10171;42.694;23.318;2023-05-29T00:54:45;6.03;;;5.18;;
20020;SDS011;10171;42.694;23.318;2023-05-29T00:57:12;7.65;;;5.80;;
20020;SDS011;10171;42.694;23.318;2023-05-29T00:59:37;7.05;;;5.68;;
20020;SDS011;10171;42.694;23.318;2023-05-29T01:02:04;8.45;;;5.53;;
20020;SDS011;10171;42.694;23.318;2023-05-29T01:04:31;9.80;;;5.70;;
20020;SDS011;10171;42.694;23.318;2023-05-29T01:06:58;7.35;;;5.38;;
20020;SDS011;10171;42.694;23.318;2023-05-29T01:09:24;8.13;;;5.45;;
20020;SDS011;10171;42.694;23.318;2023-05-29T01:11:52;9.20;;;5.97;;
20020;SDS011;10171;42.694;23.318;2023-05-29T01:20:42;8.45;;;5.20;;
20020;SDS011;10171;42.694;23.318;2023-05-29T01:28:19;9.05;;;6.22;;
20020;SDS011;10171;42.694;23.318;2023-05-29T01:30:46;6.95;;;5.55;;
20020;SDS011;10171;42.694;23.318;2023-05-29T01:33:13;6.78;;;5.65;;
20020;SDS011;10171;42.694;23.318;2023-05-29T01:35:39;9.18;;;6.38;;
20020;SDS011;10171;42.694;23.318;2023-05-29T01:38:05;7.70;;;5.80;;
20020;SDS011;10171;42.694;23.318;2023-05-29T01:40:30;8.45;;;5.85;;
20020;SDS011;10171;42.694;23.318;2023-05-29T01:42:56;8.50;;;6.15;;
20020;SDS011;10171;42.694;23.318;2023-05-29T01:45:21;7.97;;;5.88;;
20020;SDS011;10171;42.694;23.318;2023-05-29T01:47:47;7.95;;;6.10;;
20020;SDS011;10171;42.694;23.318;2023-05-29T01:50:14;9.80;;;5.60;;
20020;SDS011;10171;42.694;23.318;2023-05-29T01:52:40;9.60;;;5.78;;
20020;SDS011;10171;42.694;23.318;2023-05-29T01:55:06;9.68;;;6.20;;
20020;SDS011;10171;42.694;23.318;2023-05-29T01:57:33;11.35;;;6.20;;
20020;SDS011;10171;42.694;23.318;2023-05-29T01:59:58;9.02;;;6.63;;
20020;SDS011;10171;42.694;23.318;2023-05-29T02:02:24;10.00;;;5.70;;
20020;SDS011;10171;42.694;23.318;2023-05-29T02:04:49;8.52;;;6.05;;
20020;SDS011;10171;42.694;23.318;2023-05-29T02:07:16;7.85;;;5.53;;
20020;SDS011;10171;42.694;23.318;2023-05-29T02:09:42;9.40;;;6.15;;
20020;SDS011;10171;42.694;23.318;2023-05-29T02:12:07;6.30;;;5.07;;
20020;SDS011;10171;42.694;23.318;2023-05-29T02:14:33;9.25;;;5.72;;
20020;SDS011;10171;42.694;23.318;2023-05-29T02:16:58;14.00;;;6.32;;
20020;SDS011;10171;42.694;23.318;2023-05-29T02:19:24;10.65;;;5.75;;
20020;SDS011;10171;42.694;23.318;2023-05-29T02:21:51;7.75;;;6.10;;
20020;SDS011;10171;42.694;23.318;2023-05-29T02:24:17;9.00;;;6.13;;
20020;SDS011;10171;42.694;23.318;2023-05-29T02:26:42;9.65;;;6.25;;
20020;SDS011;10171;42.694;23.318;2023-05-29T02:29:08;8.55;;;6.05;;
20020;SDS011;10171;42.694;23.318;2023-05-29T02:31:33;8.23;;;5.80;;
20020;SDS011;10171;42.694;23.318;2023-05-29T02:33:58;8.73;;;6.30;;
20020;SDS011;10171;42.694;23.318;2023-05-29T02:36:24;18.40;;;13.10;;
20020;SDS011;10171;42.694;23.318;2023-05-29T02:38:49;17.13;;;11.55;;
20020;SDS011;10171;42.694;23.318;2023-05-29T02:41:15;12.07;;;8.60;;
20020;SDS011;10171;42.694;23.318;2023-05-29T02:43:40;11.05;;;7.28;;
20020;SDS011;10171;42.694;23.318;2023-05-29T02:46:05;8.48;;;5.32;;
20020;SDS011;10171;42.694;23.318;2023-05-29T02:48:30;8.35;;;5.70;;
20020;SDS011;10171;42.694;23.318;2023-05-29T02:50:56;7.90;;;5.70;;
20020;SDS011;10171;42.694;23.318;2023-05-29T02:53:21;8.50;;;5.70;;
20020;SDS011;10171;42.694;23.318;2023-05-29T02:55:46;8.38;;;5.85;;
20020;SDS011;10171;42.694;23.318;2023-05-29T02:58:13;11.98;;;6.47;;
20020;SDS011;10171;42.694;23.318;2023-05-29T03:00:38;9.50;;;6.65;;
20020;SDS011;10171;42.694;23.318;2023-05-29T03:03:03;9.50;;;6.55;;
20020;SDS011;10171;42.694;23.318;2023-05-29T03:05:29;7.00;;;5.97;;
20020;SDS011;10171;42.694;23.318;2023-05-29T03:07:55;10.05;;;6.10;;
20020;SDS011;10171;42.694;23.318;2023-05-29T03:10:20;8.88;;;5.85;;
20020;SDS011;10171;42.694;23.318;2023-05-29T03:12:46;11.55;;;6.05;;
20020;SDS011;10171;42.694;23.318;2023-05-29T03:15:11;10.30;;;6.45;;
20020;SDS011;10171;42.694;23.318;2023-05-29T03:17:36;7.95;;;5.28;;
20020;SDS011;10171;42.694;23.318;2023-05-29T03:20:03;11.98;;;6.32;;
20020;SDS011;10171;42.694;23.318;2023-05-29T03:22:31;7.90;;;5.57;;
20020;SDS011;10171;42.694;23.318;2023-05-29T03:24:56;12.32;;;6.70;;
20020;SDS011;10171;42.694;23.318;2023-05-29T03:27:21;8.50;;;6.25;;
20020;SDS011;10171;42.694;23.318;2023-05-29T03:29:47;8.07;;;5.97;;
20020;SDS011;10171;42.694;23.318;2023-05-29T03:32:12;9.75;;;6.53;;
20020;SDS011;10171;42.694;23.318;2023-05-29T03:34:38;10.32;;;6.30;;
20020;SDS011;10171;42.694;23.318;2023-05-29T03:37:05;9.73;;;6.93;;
20020;SDS011;10171;42.694;23.318;2023-05-29T03:39:30;10.77;;;6.95;;
20020;SDS011;10171;42.694;23.318;2023-05-29T03:41:55;9.55;;;6.35;;
20020;SDS011;10171;42.694;23.318;2023-05-29T03:44:21;8.10;;;6.25;;
20020;SDS011;10171;42.694;23.318;2023-05-29T03:46:46;8.95;;;6.55;;
20020;SDS011;10171;42.694;23.318;2023-05-29T03:49:11;14.40;;;6.65;;
20020;SDS011;10171;42.694;23.318;2023-05-29T03:51:36;9.35;;;6.78;;
20020;SDS011;10171;42.694;23.318;2023-05-29T03:54:02;10.70;;;6.82;;
20020;SDS011;10171;42.694;23.318;2023-05-29T03:56:27;10.65;;;6.53;;
20020;SDS011;10171;42.694;23.318;2023-05-29T03:58:53;10.77;;;7.47;;
20020;SDS011;10171;42.694;23.318;2023-05-29T04:01:18;13.93;;;7.22;;
20020;SDS011;10171;42.694;23.318;2023-05-29T04:03:43;13.07;;;6.60;;
20020;SDS011;10171;42.694;23.318;2023-05-29T04:06:10;11.88;;;7.90;;
20020;SDS011;10171;42.694;23.318;2023-05-29T04:08:36;11.18;;;7.15;;
20020;SDS011;10171;42.694;23.318;2023-05-29T04:11:01;10.32;;;7.35;;
20020;SDS011;10171;42.694;23.318;2023-05-29T04:13:28;13.02;;;7.22;;
20020;SDS011;10171;42.694;23.318;2023-05-29T04:15:54;11.45;;;7.45;;
20020;SDS011;10171;42.694;23.318;2023-05-29T04:18:20;11.82;;;6.75;;
20020;SDS011;10171;42.694;23.318;2023-05-29T04:20:45;10.52;;;6.35;;
20020;SDS011;10171;42.694;23.318;2023-05-29T04:23:12;11.13;;;6.55;;
20020;SDS011;10171;42.694;23.318;2023-05-29T04:25:37;8.55;;;5.60;;
20020;SDS011;10171;42.694;23.318;2023-05-29T04:28:03;10.93;;;6.70;;
20020;SDS011;10171;42.694;23.318;2023-05-29T04:30:28;15.75;;;7.50;;
20020;SDS011;10171;42.694;23.318;2023-05-29T04:32:53;15.80;;;6.72;;
20020;SDS011;10171;42.694;23.318;2023-05-29T04:35:19;11.15;;;7.85;;
20020;SDS011;10171;42.694;23.318;2023-05-29T04:37:44;15.68;;;8.52;;
20020;SDS011;10171;42.694;23.318;2023-05-29T04:40:10;14.18;;;8.50;;
20020;SDS011;10171;42.694;23.318;2023-05-29T04:42:36;18.30;;;9.23;;
20020;SDS011;10171;42.694;23.318;2023-05-29T04:45:02;15.55;;;8.70;;
20020;SDS011;10171;42.694;23.318;2023-05-29T04:47:31;13.27;;;8.60;;
20020;SDS011;10171;42.694;23.318;2023-05-29T04:50:00;15.68;;;8.98;;
20020;SDS011;10171;42.694;23.318;2023-05-29T04:52:26;18.73;;;9.00;;
20020;SDS011;10171;42.694;23.318;2023-05-29T04:54:51;17.40;;;10.35;;
20020;SDS011;10171;42.694;23.318;2023-05-29T04:57:17;17.65;;;9.57;;
20020;SDS011;10171;42.694;23.318;2023-05-29T04:59:42;17.40;;;9.73;;
20020;SDS011;10171;42.694;23.318;2023-05-29T05:02:08;16.25;;;8.65;;
20020;SDS011;10171;42.694;23.318;2023-05-29T05:04:33;12.45;;;9.48;;
20020;SDS011;10171;42.694;23.318;2023-05-29T05:06:58;17.50;;;9.20;;
20020;SDS011;10171;42.694;23.318;2023-05-29T05:09:24;16.13;;;9.15;;
20020;SDS011;10171;42.694;23.318;2023-05-29T05:11:49;12.95;;;8.07;;
20020;SDS011;10171;42.694;23.318;2023-05-29T05:14:14;13.35;;;8.50;;
20020;SDS011;10171;42.694;23.318;2023-05-29T05:16:40;13.95;;;7.80;;
20020;SDS011;10171;42.694;23.318;2023-05-29T05:19:05;10.77;;;7.65;;
20020;SDS011;10171;42.694;23.318;2023-05-29T05:21:31;9.80;;;8.00;;
20020;SDS011;10171;42.694;23.318;2023-05-29T05:23:58;10.63;;;8.10;;
20020;SDS011;10171;42.694;23.318;2023-05-29T05:26:23;10.85;;;7.63;;
20020;SDS011;10171;42.694;23.318;2023-05-29T05:28:49;8.98;;;7.38;;
20020;SDS011;10171;42.694;23.318;2023-05-29T05:31:14;15.32;;;7.72;;
20020;SDS011;10171;42.694;23.318;2023-05-29T05:33:40;12.70;;;7.65;;
20020;SDS011;10171;42.694;23.318;2023-05-29T05:36:05;14.60;;;7.88;;
20020;SDS011;10171;42.694;23.318;2023-05-29T05:38:31;15.70;;;8.63;;
20020;SDS011;10171;42.694;23.318;2023-05-29T05:40:57;14.82;;;8.82;;
20020;SDS011;10171;42.694;23.318;2023-05-29T05:43:22;17.50;;;8.27;;
20020;SDS011;10171;42.694;23.318;2023-05-29T05:45:48;15.88;;;8.50;;
20020;SDS011;10171;42.694;23.318;2023-05-29T05:48:13;19.65;;;9.30;;
20020;SDS011;10171;42.694;23.318;2023-05-29T05:50:38;13.25;;;7.47;;
20020;SDS011;10171;42.694;23.318;2023-05-29T05:53:03;15.82;;;8.20;;
20020;SDS011;10171;42.694;23.318;2023-05-29T05:55:29;16.67;;;9.02;;
20020;SDS011;10171;42.694;23.318;2023-05-29T05:57:54;14.85;;;8.63;;
20020;SDS011;10171;42.694;23.318;2023-05-29T06:00:22;17.02;;;8.23;;
20020;SDS011;10171;42.694;23.318;2023-05-29T06:02:47;13.57;;;7.72;;
20020;SDS011;10171;42.694;23.318;2023-05-29T06:05:13;10.18;;;6.68;;
20020;SDS011;10171;42.694;23.318;2023-05-29T06:07:38;13.07;;;7.65;;
20020;SDS011;10171;42.694;23.318;2023-05-29T06:10:04;11.25;;;7.15;;
20020;SDS011;10171;42.694;23.318;2023-05-29T06:12:29;11.18;;;6.45;;
20020;SDS011;10171;42.694;23.318;2023-05-29T06:14:54;10.60;;;6.38;;
20020;SDS011;10171;42.694;23.318;2023-05-29T06:17:20;11.75;;;6.50;;
20020;SDS011;10171;42.694;23.318;2023-05-29T06:19:46;13.02;;;6.82;;
20020;SDS011;10171;42.694;23.318;2023-05-29T06:22:11;9.23;;;5.78;;
20020;SDS011;10171;42.694;23.318;2023-05-29T06:24:37;8.07;;;5.53;;
20020;SDS011;10171;42.694;23.318;2023-05-29T06:27:02;9.13;;;5.22;;
20020;SDS011;10171;42.694;23.318;2023-05-29T06:29:28;10.52;;;5.22;;
20020;SDS011;10171;42.694;23.318;2023-05-29T06:31:53;6.50;;;5.05;;
20020;SDS011;10171;42.694;23.318;2023-05-29T06:34:18;9.82;;;5.55;;
20020;SDS011;10171;42.694;23.318;2023-05-29T06:36:44;10.00;;;5.05;;
20020;SDS011;10171;42.694;23.318;2023-05-29T06:39:09;6.82;;;4.70;;
20020;SDS011;10171;42.694;23.318;2023-05-29T06:41:35;6.35;;;3.65;;
20020;SDS011;10171;42.694;23.318;2023-05-29T06:44:00;6.68;;;3.63;;
20020;SDS011;10171;42.694;23.318;2023-05-29T06:46:25;5.07;;;4.05;;
20020;SDS011;10171;42.694;23.318;2023-05-29T06:48:51;6.15;;;4.93;;
20020;SDS011;10171;42.694;23.318;2023-05-29T06:51:17;8.85;;;5.38;;
20020;SDS011;10171;42.694;23.318;2023-05-29T06:53:42;7.63;;;4.78;;
20020;SDS011;10171;42.694;23.318;2023-05-29T06:56:07;9.88;;;5.15;;
20020;SDS011;10171;42.694;23.318;2023-05-29T06:58:33;7.18;;;4.97;;
20020;SDS011;10171;42.694;23.318;2023-05-29T07:00:58;11.38;;;5.05;;
20020;SDS011;10171;42.694;23.318;2023-05-29T07:03:27;9.23;;;4.68;;
20020;SDS011;10171;42.694;23.318;2023-05-29T07:05:53;9.45;;;4.60;;
20020;SDS011;10171;42.694;23.318;2023-05-29T07:08:18;7.38;;;4.65;;
20020;SDS011;10171;42.694;23.318;2023-05-29T07:10:44;6.72;;;2.90;;
20020;SDS011;10171;42.694;23.318;2023-05-29T07:13:09;3.03;;;2.63;;
20020;SDS011;10171;42.694;23.318;2023-05-29T07:15:36;2.50;;;2.30;;
20020;SDS011;10171;42.694;23.318;2023-05-29T07:18:02;3.55;;;2.92;;
20020;SDS011;10171;42.694;23.318;2023-05-29T07:20:27;3.20;;;2.90;;
20020;SDS011;10171;42.694;23.318;2023-05-29T07:22:52;5.25;;;2.88;;
20020;SDS011;10171;42.694;23.318;2023-05-29T07:25:18;5.75;;;3.20;;
20020;SDS011;10171;42.694;23.318;2023-05-29T07:27:43;5.60;;;3.30;;
20020;SDS011;10171;42.694;23.318;2023-05-29T07:30:09;5.30;;;3.63;;
20020;SDS011;10171;42.694;23.318;2023-05-29T07:32:35;4.55;;;3.22;;
20020;SDS011;10171;42.694;23.318;2023-05-29T07:35:00;6.20;;;3.50;;
20020;SDS011;10171;42.694;23.318;2023-05-29T07:37:25;4.60;;;3.80;;
20020;SDS011;10171;42.694;23.318;2023-05-29T07:39:51;5.45;;;4.15;;
20020;SDS011;10171;42.694;23.318;2023-05-29T07:42:16;5.60;;;3.47;;
20020;SDS011;10171;42.694;23.318;2023-05-29T07:44:41;5.60;;;3.35;;
20020;SDS011;10171;42.694;23.318;2023-05-29T07:47:08;6.28;;;3.00;;
20020;SDS011;10171;42.694;23.318;2023-05-29T07:49:33;3.78;;;2.83;;
20020;SDS011;10171;42.694;23.318;2023-05-29T07:51:59;4.47;;;3.13;;
20020;SDS011;10171;42.694;23.318;2023-05-29T07:54:25;4.32;;;3.47;;
20020;SDS011;10171;42.694;23.318;2023-05-29T07:56:51;4.28;;;3.05;;
20020;SDS011;10171;42.694;23.318;2023-05-29T07:59:16;3.45;;;2.53;;
20020;SDS011;10171;42.694;23.318;2023-05-29T08:01:42;5.22;;;3.67;;
20020;SDS011;10171;42.694;23.318;2023-05-29T08:04:08;5.22;;;3.33;;
20020;SDS011;10171;42.694;23.318;2023-05-29T08:06:34;3.90;;;2.78;;
20020;SDS011;10171;42.694;23.318;2023-05-29T08:08:59;4.68;;;2.45;;
20020;SDS011;10171;42.694;23.318;2023-05-29T08:11:24;3.35;;;2.40;;
20020;SDS011;10171;42.694;23.318;2023-05-29T08:13:50;4.72;;;2.33;;
20020;SDS011;10171;42.694;23.318;2023-05-29T08:16:15;2.55;;;2.17;;
20020;SDS011;10171;42.694;23.318;2023-05-29T08:18:42;2.70;;;2.22;;
20020;SDS011;10171;42.694;23.318;2023-05-29T08:21:07;3.95;;;2.50;;
20020;SDS011;10171;42.694;23.318;2023-05-29T08:23:34;3.28;;;2.92;;
20020;SDS011;10171;42.694;23.318;2023-05-29T08:25:59;4.35;;;2.55;;
20020;SDS011;10171;42.694;23.318;2023-05-29T08:28:25;4.43;;;3.00;;
20020;SDS011;10171;42.694;23.318;2023-05-29T08:30:52;3.65;;;2.50;;
20020;SDS011;10171;42.694;23.318;2023-05-29T08:33:17;3.30;;;2.65;;
20020;SDS011;10171;42.694;23.318;2023-05-29T08:35:42;4.80;;;3.00;;
20020;SDS011;10171;42.694;23.318;2023-05-29T08:38:08;4.32;;;2.47;;
20020;SDS011;10171;42.694;23.318;2023-05-29T08:40:33;3.10;;;2.67;;
20020;SDS011;10171;42.694;23.318;2023-05-29T08:45:26;3.10;;;2.70;;
20020;SDS011;10171;42.694;23.318;2023-05-29T08:47:54;4.00;;;3.03;;
20020;SDS011;10171;42.694;23.318;2023-05-29T08:50:20;3.88;;;3.35;;
20020;SDS011;10171;42.694;23.318;2023-05-29T08:52:46;3.45;;;3.03;;
20020;SDS011;10171;42.694;23.318;2023-05-29T08:55:12;8.25;;;3.47;;
20020;SDS011;10171;42.694;23.318;2023-05-29T08:57:38;14.38;;;5.05;;
20020;SDS011;10171;42.694;23.318;2023-05-29T09:00:04;20.75;;;6.35;;
20020;SDS011;10171;42.694;23.318;2023-05-29T09:02:34;5.50;;;3.55;;
20020;SDS011;10171;42.694;23.318;2023-05-29T09:05:02;5.03;;;3.15;;
20020;SDS011;10171;42.694;23.318;2023-05-29T09:07:27;12.70;;;4.40;;
20020;SDS011;10171;42.694;23.318;2023-05-29T09:09:52;5.53;;;3.55;;
20020;SDS011;10171;42.694;23.318;2023-05-29T09:12:18;11.95;;;4.82;;
20020;SDS011;10171;42.694;23.318;2023-05-29T09:14:44;7.55;;;3.55;;
20020;SDS011;10171;42.694;23.318;2023-05-29T09:17:10;5.25;;;3.25;;
20020;SDS011;10171;42.694;23.318;2023-05-29T09:19:35;5.13;;;3.67;;
20020;SDS011;10171;42.694;23.318;2023-05-29T09:22:05;4.97;;;3.50;;
20020;SDS011;10171;42.694;23.318;2023-05-29T09:24:33;13.25;;;6.13;;
20020;SDS011;10171;42.694;23.318;2023-05-29T09:26:59;10.00;;;5.13;;
20020;SDS011;10171;42.694;23.318;2023-05-29T09:29:25;6.93;;;4.43;;
20020;SDS011;10171;42.694;23.318;2023-05-29T09:31:50;10.80;;;5.18;;
20020;SDS011;10171;42.694;23.318;2023-05-29T09:34:16;7.90;;;4.00;;
20020;SDS011;10171;42.694;23.318;2023-05-29T09:36:41;6.80;;;3.92;;
20020;SDS011;10171;42.694;23.318;2023-05-29T09:39:06;7.03;;;4.22;;
20020;SDS011;10171;42.694;23.318;2023-05-29T09:41:36;4.60;;;3.50;;
20020;SDS011;10171;42.694;23.318;2023-05-29T09:44:06;5.70;;;3.72;;
20020;SDS011;10171;42.694;23.318;2023-05-29T09:46:36;5.05;;;2.90;;
20020;SDS011;10171;42.694;23.318;2023-05-29T09:49:01;8.75;;;3.60;;
20020;SDS011;10171;42.694;23.318;2023-05-29T09:51:28;6.97;;;3.20;;
20020;SDS011;10171;42.694;23.318;2023-05-29T09:53:54;6.38;;;3.75;;
20020;SDS011;10171;42.694;23.318;2023-05-29T09:56:22;5.97;;;3.60;;
20020;SDS011;10171;42.694;23.318;2023-05-29T09:58:48;3.85;;;3.47;;
20020;SDS011;10171;42.694;23.318;2023-05-29T10:01:14;4.85;;;3.75;;
20020;SDS011;10171;42.694;23.318;2023-05-29T10:03:42;5.28;;;3.30;;
20020;SDS011;10171;42.694;23.318;2023-05-29T10:06:09;3.83;;;3.45;;
20020;SDS011;10171;42.694;23.318;2023-05-29T10:08:42;4.38;;;3.28;;
20020;SDS011;10171;42.694;23.318;2023-05-29T10:11:10;4.20;;;3.80;;
20020;SDS011;10171;42.694;23.318;2023-05-29T10:13:40;5.22;;;3.35;;
20020;SDS011;10171;42.694;23.318;2023-05-29T10:16:10;5.38;;;3.70;;
20020;SDS011;10171;42.694;23.318;2023-05-29T10:18:47;5.63;;;3.88;;
20020;SDS011;10171;42.694;23.318;2023-05-29T10:21:15;5.10;;;3.63;;
20020;SDS011;10171;42.694;23.318;2023-05-29T10:23:42;4.40;;;3.08;;
20020;SDS011;10171;42.694;23.318;2023-05-29T10:26:26;5.05;;;3.67;;
20020;SDS011;10171;42.694;23.318;2023-05-29T10:31:52;5.03;;;3.72;;
20020;SDS011;10171;42.694;23.318;2023-05-29T10:34:31;7.40;;;3.88;;
20020;SDS011;10171;42.694;23.318;2023-05-29T10:37:40;6.30;;;3.30;;
20020;SDS011;10171;42.694;23.318;2023-05-29T10:39:45;4.93;;;3.17;;
20020;SDS011;10171;42.694;23.318;2023-05-29T10:44:54;4.28;;;3.10;;
20020;SDS011;10171;42.694;23.318;2023-05-29T10:47:23;6.57;;;3.65;;
20020;SDS011;10171;42.694;23.318;2023-05-29T10:49:49;6.97;;;3.63;;
20020;SDS011;10171;42.694;23.318;2023-05-29T10:52:14;5.90;;;3.55;;
20020;SDS011;10171;42.694;23.318;2023-05-29T10:54:49;6.40;;;3.75;;
20020;SDS011;10171;42.694;23.318;2023-05-29T10:57:15;5.75;;;3.60;;
20020;SDS011;10171;42.694;23.318;2023-05-29T10:59:41;6.18;;;4.10;;
20020;SDS011;10171;42.694;23.318;2023-05-29T11:02:06;6.38;;;4.03;;
20020;SDS011;10171;42.694;23.318;2023-05-29T11:04:34;6.25;;;4.15;;
20020;SDS011;10171;42.694;23.318;2023-05-29T11:06:59;6.72;;;4.00;;
20020;SDS011;10171;42.694;23.318;2023-05-29T11:12:12;4.32;;;3.92;;
20020;SDS011;10171;42.694;23.318;2023-05-29T11:14:47;6.28;;;3.65;;
20020;SDS011;10171;42.694;23.318;2023-05-29T11:17:28;7.07;;;3.53;;
20020;SDS011;10171;42.694;23.318;2023-05-29T11:19:55;5.22;;;3.42;;
20020;SDS011;10171;42.694;23.318;2023-05-29T11:22:22;7.80;;;3.80;;
20020;SDS011;10171;42.694;23.318;2023-05-29T11:24:52;5.05;;;3.55;;
20020;SDS011;10171;42.694;23.318;2023-05-29T11:27:18;5.95;;;3.60;;
20020;SDS011;10171;42.694;23.318;2023-05-29T11:29:43;6.20;;;4.13;;
20020;SDS011;10171;42.694;23.318;2023-05-29T11:32:11;5.63;;;4.35;;
20020;SDS011;10171;42.694;23.318;2023-05-29T11:34:41;7.90;;;4.47;;
20020;SDS011;10171;42.694;23.318;2023-05-29T11:37:09;7.18;;;5.00;;
20020;SDS011;10171;42.694;23.318;2023-05-29T11:39:37;6.20;;;3.60;;
20020;SDS011;10171;42.694;23.318;2023-05-29T11:42:03;3.78;;;3.35;;
20020;SDS011;10171;42.694;23.318;2023-05-29T11:44:30;4.60;;;3.33;;
20020;SDS011;10171;42.694;23.318;2023-05-29T11:46:59;5.43;;;2.85;;
20020;SDS011;10171;42.694;23.318;2023-05-29T11:49:30;5.80;;;3.47;;
20020;SDS011;10171;42.694;23.318;2023-05-29T11:52:15;4.32;;;3.60;;
20020;SDS011;10171;42.694;23.318;2023-05-29T11:54:42;4.35;;;3.38;;
20020;SDS011;10171;42.694;23.318;2023-05-29T11:57:16;5.65;;;3.33;;
20020;SDS011;10171;42.694;23.318;2023-05-29T11:59:43;3.83;;;2.97;;
20020;SDS011;10171;42.694;23.318;2023-05-29T12:02:08;5.68;;;3.50;;
20020;SDS011;10171;42.694;23.318;2023-05-29T12:04:34;3.38;;;3.08;;
20020;SDS011;10171;42.694;23.318;2023-05-29T12:06:59;4.40;;;3.28;;
20020;SDS011;10171;42.694;23.318;2023-05-29T12:09:26;3.45;;;3.15;;
20020;SDS011;10171;42.694;23.318;2023-05-29T12:11:53;4.72;;;3.92;;
20020;SDS011;10171;42.694;23.318;2023-05-29T12:14:19;5.60;;;3.80;;
20020;SDS011;10171;42.694;23.318;2023-05-29T12:16:45;8.00;;;3.92;;
20020;SDS011;10171;42.694;23.318;2023-05-29T12:19:10;9.55;;;4.97;;
20020;SDS011;10171;42.694;23.318;2023-05-29T12:21:36;11.73;;;6.10;;
20020;SDS011;10171;42.694;23.318;2023-05-29T12:24:06;16.08;;;6.38;;
20020;SDS011;10171;42.694;23.318;2023-05-29T12:26:31;10.73;;;6.82;;
20020;SDS011;10171;42.694;23.318;2023-05-29T12:28:57;10.25;;;6.10;;
20020;SDS011;10171;42.694;23.318;2023-05-29T12:31:29;11.70;;;4.78;;
20020;SDS011;10171;42.694;23.318;2023-05-29T12:34:02;8.43;;;4.45;;
20020;SDS011;10171;42.694;23.318;2023-05-29T12:36:27;9.07;;;4.82;;
20020;SDS011;10171;42.694;23.318;2023-05-29T12:38:53;12.88;;;5.25;;
20020;SDS011;10171;42.694;23.318;2023-05-29T12:43:47;6.88;;;4.15;;
20020;SDS011;10171;42.694;23.318;2023-05-29T12:46:12;9.68;;;4.45;;
20020;SDS011;10171;42.694;23.318;2023-05-29T12:48:38;4.55;;;3.60;;
20020;SDS011;10171;42.694;23.318;2023-05-29T12:51:04;6.13;;;4.28;;
20020;SDS011;10171;42.694;23.318;2023-05-29T12:53:33;6.75;;;3.70;;
20020;SDS011;10171;42.694;23.318;2023-05-29T12:55:58;5.53;;;3.83;;
20020;SDS011;10171;42.694;23.318;2023-05-29T12:58:24;7.03;;;4.47;;
20020;SDS011;10171;42.694;23.318;2023-05-29T13:00:52;6.10;;;3.85;;
20020;SDS011;10171;42.694;23.318;2023-05-29T13:03:21;5.70;;;3.70;;
20020;SDS011;10171;42.694;23.318;2023-05-29T13:05:48;6.20;;;3.83;;
20020;SDS011;10171;42.694;23.318;2023-05-29T13:08:14;7.15;;;4.47;;
20020;SDS011;10171;42.694;23.318;2023-05-29T13:10:39;5.00;;;4.05;;
20020;SDS011;10171;42.694;23.318;2023-05-29T13:13:04;6.55;;;4.57;;
20020;SDS011;10171;42.694;23.318;2023-05-29T13:15:30;5.07;;;4.22;;
20020;SDS011;10171;42.694;23.318;2023-05-29T13:17:57;5.18;;;4.60;;
20020;SDS011;10171;42.694;23.318;2023-05-29T13:20:23;7.57;;;5.30;;
20020;SDS011;10171;42.694;23.318;2023-05-29T13:22:48;9.93;;;4.60;;
20020;SDS011;10171;42.694;23.318;2023-05-29T13:25:14;5.40;;;4.50;;
20020;SDS011;10171;42.694;23.318;2023-05-29T13:27:40;4.80;;;4.22;;
20020;SDS011;10171;42.694;23.318;2023-05-29T13:30:06;6.85;;;4.30;;
20020;SDS011;10171;42.694;23.318;2023-05-29T13:32:32;6.40;;;4.80;;
20020;SDS011;10171;42.694;23.318;2023-05-29T13:34:57;6.15;;;4.57;;
20020;SDS011;10171;42.694;23.318;2023-05-29T13:37:22;6.70;;;4.80;;
20020;SDS011;10171;42.694;23.318;2023-05-29T13:39:48;8.52;;;4.63;;
20020;SDS011;10171;42.694;23.318;2023-05-29T13:42:14;5.95;;;4.00;;
20020;SDS011;10171;42.694;23.318;2023-05-29T13:44:40;4.40;;;3.30;;
20020;SDS011;10171;42.694;23.318;2023-05-29T13:47:06;5.03;;;3.20;;
20020;SDS011;10171;42.694;23.318;2023-05-29T13:49:32;3.85;;;2.97;;
20020;SDS011;10171;42.694;23.318;2023-05-29T13:51:57;3.38;;;2.67;;
20020;SDS011;10171;42.694;23.318;2023-05-29T13:54:22;3.15;;;2.53;;
20020;SDS011;10171;42.694;23.318;2023-05-29T13:56:48;8.43;;;3.75;;
20020;SDS011;10171;42.694;23.318;2023-05-29T13:59:14;11.45;;;6.45;;
20020;SDS011;10171;42.694;23.318;2023-05-29T14:01:40;6.80;;;2.50;;
20020;SDS011;10171;42.694;23.318;2023-05-29T14:04:05;6.07;;;2.90;;
20020;SDS011;10171;42.694;23.318;2023-05-29T14:06:30;6.70;;;2.47;;
20020;SDS011;10171;42.694;23.318;2023-05-29T14:08:57;6.32;;;2.55;;
20020;SDS011;10171;42.694;23.318;2023-05-29T14:11:22;4.88;;;1.90;;
20020;SDS011;10171;42.694;23.318;2023-05-29T14:13:47;4.03;;;2.47;;
20020;SDS011;10171;42.694;23.318;2023-05-29T14:16:13;3.80;;;2.30;;
20020;SDS011;10171;42.694;23.318;2023-05-29T14:18:40;3.35;;;2.80;;
20020;SDS011;10171;42.694;23.318;2023-05-29T14:21:06;8.25;;;3.15;;
20020;SDS011;10171;42.694;23.318;2023-05-29T14:23:32;7.82;;;3.15;;
20020;SDS011;10171;42.694;23.318;2023-05-29T14:25:57;3.65;;;1.92;;
20020;SDS011;10171;42.694;23.318;2023-05-29T14:28:22;2.53;;;2.08;;
20020;SDS011;10171;42.694;23.318;2023-05-29T14:30:47;3.38;;;1.77;;
20020;SDS011;10171;42.694;23.318;2023-05-29T14:33:13;6.45;;;2.80;;
20020;SDS011;10171;42.694;23.318;2023-05-29T14:35:38;3.95;;;2.80;;
20020;SDS011;10171;42.694;23.318;2023-05-29T14:38:03;2.92;;;2.50;;
20020;SDS011;10171;42.694;23.318;2023-05-29T14:40:29;6.20;;;2.00;;
20020;SDS011;10171;42.694;23.318;2023-05-29T14:42:56;3.65;;;1.75;;
20020;SDS011;10171;42.694;23.318;2023-05-29T14:45:21;4.68;;;1.80;;
20020;SDS011;10171;42.694;23.318;2023-05-29T14:47:46;2.63;;;1.98;;
20020;SDS011;10171;42.694;23.318;2023-05-29T14:50:11;3.10;;;2.00;;